Time;durP1;ratioP1;P1;durP2;ratioP2;P2;SDS_P1;SDS_P2;PMS_P1;PMS_P2;Temp;Humidity;BMP_temperature;BMP_pressure;BME280_temperature;BME280_humidity;BME280_pressure;Samples;Min_cycle;Max_cycle;Signal;HPM_P1;HPM_P2
2021/10/28 00:14:04;;;;;;;323.03;57.97;;;11.60;99.90;;;;;;6186808;23;20394;-76
2021/10/28 00:16:34;;;;;;;220.87;59.67;;;11.60;99.90;;;;;;6159977;23;20783;-76
2021/10/28 00:19:04;;;;;;;285.50;64.77;;;11.60;99.90;;;;;;6159996;23;20749;-76
2021/10/28 00:21:35;;;;;;;293.83;60.87;;;11.60;99.90;;;;;;6186600;23;20423;-76
2021/10/28 00:24:10;;;;;;;256.50;54.47;;;11.50;99.90;;;;;;6159987;23;20439;-76
2021/10/28 00:26:41;;;;;;;328.63;74.50;;;11.50;99.90;;;;;;6196282;23;20685;-76
2021/10/28 00:29:11;;;;;;;263.43;66.60;;;11.50;99.90;;;;;;6196240;23;20833;-76
2021/10/28 00:31:40;;;;;;;260.37;61.83;;;11.50;99.90;;;;;;6159829;23;20738;-76
2021/10/28 00:34:09;;;;;;;270.77;57.73;;;11.50;99.90;;;;;;6160161;23;20543;-76
2021/10/28 00:36:39;;;;;;;242.13;48.93;;;11.50;99.90;;;;;;6196191;23;20930;-76
2021/10/28 00:39:09;;;;;;;283.57;51.17;;;11.50;99.90;;;;;;6196083;23;20432;-76
2021/10/28 00:41:39;;;;;;;256.10;72.37;;;11.50;99.90;;;;;;6196137;23;20404;-76
2021/10/28 00:44:08;;;;;;;271.37;51.90;;;11.40;99.90;;;;;;6159648;23;20517;-76
2021/10/28 00:46:39;;;;;;;255.57;66.47;;;11.40;99.90;;;;;;6159710;23;20518;-76
2021/10/28 00:49:10;;;;;;;150.07;45.17;;;11.40;99.90;;;;;;6159721;23;20415;-76
2021/10/28 00:51:39;;;;;;;280.20;65.67;;;11.40;99.90;;;;;;6186500;23;20400;-76
2021/10/28 00:54:13;;;;;;;193.63;52.73;;;11.40;99.90;;;;;;6159661;23;20759;-76
2021/10/28 00:56:43;;;;;;;290.47;64.93;;;11.40;99.90;;;;;;6161118;23;20768;-76
2021/10/28 00:59:11;;;;;;;289.97;67.70;;;11.30;99.90;;;;;;6159440;23;20411;-76
2021/10/28 01:01:40;;;;;;;165.77;44.37;;;11.40;99.90;;;;;;6195903;23;20867;-76
2021/10/28 01:04:09;;;;;;;320.20;63.60;;;11.30;99.90;;;;;;6159660;23;20424;-76
2021/10/28 01:06:39;;;;;;;232.50;60.13;;;11.30;99.90;;;;;;6159547;23;20506;-76
2021/10/28 01:09:09;;;;;;;197.43;50.80;;;11.30;99.90;;;;;;6196308;23;20943;-76
2021/10/28 01:11:38;;;;;;;253.13;50.67;;;11.30;99.90;;;;;;6159552;23;20415;-76
2021/10/28 01:14:06;;;;;;;235.03;54.10;;;11.30;99.90;;;;;;6186130;23;20419;-76
2021/10/28 01:16:35;;;;;;;347.70;68.37;;;11.30;99.90;;;;;;6159480;23;20462;-76
2021/10/28 01:19:04;;;;;;;245.00;57.17;;;11.30;99.90;;;;;;6159707;23;20419;-76
2021/10/28 01:21:33;;;;;;;363.30;62.23;;;11.20;99.90;;;;;;6195819;23;20801;-76
2021/10/28 01:24:02;;;;;;;286.40;60.33;;;11.20;99.90;;;;;;6196555;23;20962;-76
2021/10/28 01:26:30;;;;;;;172.33;46.40;;;11.20;99.90;;;;;;6159458;23;20447;-76
2021/10/28 01:29:00;;;;;;;262.53;64.30;;;11.20;99.90;;;;;;6160726;23;20424;-76
2021/10/28 01:31:31;;;;;;;267.77;59.53;;;11.20;99.90;;;;;;6159416;23;20442;-76
2021/10/28 01:34:02;;;;;;;172.40;45.47;;;11.10;99.90;;;;;;6159438;23;20495;-76
2021/10/28 01:36:30;;;;;;;270.60;68.77;;;11.10;99.90;;;;;;6159401;23;20396;-76
2021/10/28 01:39:13;;;;;;;178.43;60.50;;;11.10;99.90;;;;;;6159158;23;20425;-76
2021/10/28 01:41:42;;;;;;;255.70;56.60;;;11.10;99.90;;;;;;6159401;23;20408;-76
2021/10/28 01:44:10;;;;;;;359.57;64.37;;;11.00;99.90;;;;;;6159371;23;20415;-76
2021/10/28 01:46:39;;;;;;;207.83;56.67;;;11.00;99.90;;;;;;6195583;23;20538;-76
2021/10/28 01:49:07;;;;;;;339.57;70.67;;;11.00;99.90;;;;;;6185833;23;20403;-76
2021/10/28 01:51:36;;;;;;;245.23;65.53;;;11.00;99.90;;;;;;6159455;23;20442;-76
2021/10/28 01:54:06;;;;;;;203.03;55.40;;;11.00;99.90;;;;;;6159298;23;20752;-76
2021/10/28 01:56:35;;;;;;;263.37;56.93;;;11.00;99.90;;;;;;6159391;23;20458;-76
2021/10/28 01:59:03;;;;;;;259.50;57.33;;;10.90;99.90;;;;;;6195490;23;20402;-76
2021/10/28 02:01:35;;;;;;;245.53;52.40;;;10.90;99.90;;;;;;6159299;23;20404;-76
2021/10/28 02:04:04;;;;;;;268.00;60.00;;;10.80;99.90;;;;;;6159382;23;20892;-76
2021/10/28 02:06:32;;;;;;;253.60;57.10;;;10.80;99.90;;;;;;6159197;23;20439;-76
2021/10/28 02:09:01;;;;;;;201.77;53.67;;;10.80;99.90;;;;;;6159148;23;20462;-76
2021/10/28 02:11:31;;;;;;;259.30;53.93;;;10.80;99.90;;;;;;6185575;23;20416;-76
2021/10/28 02:13:59;;;;;;;254.53;69.20;;;10.80;99.90;;;;;;6159221;23;20455;-76
2021/10/28 02:16:31;;;;;;;265.70;52.93;;;10.80;99.90;;;;;;6159758;23;20419;-76
2021/10/28 02:19:00;;;;;;;266.27;62.83;;;10.80;99.90;;;;;;6159283;23;20793;-76
2021/10/28 02:21:28;;;;;;;357.77;60.20;;;10.80;99.90;;;;;;6159294;23;20498;-76
2021/10/28 02:23:57;;;;;;;253.70;54.23;;;10.70;99.90;;;;;;6159094;23;20979;-76
2021/10/28 02:26:26;;;;;;;255.90;55.67;;;10.70;99.90;;;;;;6159204;23;20530;-76
2021/10/28 02:28:56;;;;;;;171.97;46.93;;;10.70;99.90;;;;;;6160697;23;20420;-76
2021/10/28 02:31:25;;;;;;;171.47;49.03;;;10.70;99.90;;;;;;6161039;23;20583;-76
2021/10/28 02:33:53;;;;;;;226.20;60.50;;;10.70;99.90;;;;;;6187665;23;20416;-76
2021/10/28 02:36:21;;;;;;;235.50;65.23;;;10.70;99.90;;;;;;6197338;23;20958;-76
2021/10/28 02:38:49;;;;;;;261.00;63.80;;;10.70;99.90;;;;;;6160837;23;20408;-75
2021/10/28 02:41:18;;;;;;;203.53;55.47;;;10.60;99.90;;;;;;6160809;23;20450;-76
2021/10/28 02:43:46;;;;;;;173.30;50.57;;;10.60;99.90;;;;;;6160807;23;20447;-76
2021/10/28 02:46:16;;;;;;;194.33;63.47;;;10.60;99.90;;;;;;6160645;23;20435;-76
2021/10/28 02:48:45;;;;;;;213.03;66.23;;;10.60;99.90;;;;;;6197682;23;20898;-76
2021/10/28 02:51:14;;;;;;;196.97;56.57;;;10.60;99.90;;;;;;6160748;23;20462;-76
2021/10/28 02:53:42;;;;;;;215.77;52.90;;;10.50;99.90;;;;;;6197180;23;20805;-75
2021/10/28 02:56:10;;;;;;;243.90;64.27;;;10.50;99.90;;;;;;6160853;23;20474;-76
2021/10/28 02:58:39;;;;;;;247.77;55.87;;;10.50;99.90;;;;;;6197035;23;20487;-76
2021/10/28 03:01:07;;;;;;;190.20;53.53;;;10.50;99.90;;;;;;6160996;23;20970;-76
2021/10/28 03:03:38;;;;;;;297.90;74.17;;;10.50;99.90;;;;;;6160719;23;20454;-76
2021/10/28 03:06:07;;;;;;;193.40;59.33;;;10.40;99.90;;;;;;6160567;23;20526;-76
2021/10/28 03:08:35;;;;;;;206.87;59.37;;;10.40;99.90;;;;;;6160785;23;20502;-76
2021/10/28 03:11:07;;;;;;;256.57;62.40;;;10.40;99.90;;;;;;6187223;23;20432;-75
2021/10/28 03:13:36;;;;;;;260.13;69.23;;;10.30;99.90;;;;;;6160715;23;20863;-76
2021/10/28 03:16:14;;;;;;;192.97;53.37;;;10.40;99.90;;;;;;6160606;23;20408;-76
2021/10/28 03:27:02;;;;;;;202.13;59.80;;;10.30;99.90;;;;;;6160423;23;20463;-76
2021/10/28 03:29:30;;;;;;;172.40;53.30;;;10.20;99.90;;;;;;6160369;23;20435;-75
2021/10/28 03:31:58;;;;;;;253.77;64.57;;;10.20;99.90;;;;;;6160444;23;20420;-76
2021/10/28 03:34:28;;;;;;;177.40;47.30;;;10.20;99.90;;;;;;6160444;23;20415;-76
2021/10/28 03:37:01;;;;;;;211.40;52.97;;;10.20;99.90;;;;;;6186725;23;20954;-76
2021/10/28 03:39:45;;;;;;;205.07;54.53;;;10.20;99.90;;;;;;6159409;23;20997;-76
2021/10/28 04:05:03;;;;;;;217.90;61.33;;;10.00;99.90;;;;;;6108880;23;20465;-76
2021/10/28 04:29:52;;;;;;;166.73;57.90;;;9.80;99.90;;;;;;6195265;23;20745;-76
2021/10/28 04:32:21;;;;;;;179.33;49.87;;;9.80;99.90;;;;;;6159824;23;20502;-76
2021/10/28 04:34:49;;;;;;;232.83;55.40;;;9.80;99.90;;;;;;6159883;23;20414;-76
2021/10/28 04:37:17;;;;;;;146.03;53.47;;;9.80;99.90;;;;;;6159917;23;20439;-76
2021/10/28 04:39:48;;;;;;;163.23;55.37;;;9.80;99.90;;;;;;6159630;23;20475;-76
2021/10/28 04:42:16;;;;;;;136.53;47.50;;;9.80;99.90;;;;;;6159976;23;20454;-76
2021/10/28 04:44:44;;;;;;;206.67;52.60;;;9.80;99.90;;;;;;6159960;23;20419;-77
2021/10/28 04:47:12;;;;;;;147.00;51.00;;;9.70;99.90;;;;;;6195995;23;20522;-76
2021/10/28 04:49:40;;;;;;;223.87;53.27;;;9.70;99.90;;;;;;6186318;23;20499;-76
2021/10/28 04:52:09;;;;;;;204.07;54.97;;;9.70;99.90;;;;;;6185968;23;20891;-76
2021/10/28 04:54:38;;;;;;;192.87;57.97;;;9.70;99.90;;;;;;6159648;23;20414;-76
2021/10/28 04:57:08;;;;;;;255.90;56.80;;;9.70;99.90;;;;;;6159845;23;20892;-76
2021/10/28 04:59:36;;;;;;;199.17;56.00;;;9.70;99.90;;;;;;6159488;23;20428;-76
2021/10/28 05:02:07;;;;;;;199.17;56.77;;;9.70;99.90;;;;;;6159653;23;20725;-77
2021/10/28 05:04:36;;;;;;;175.00;45.43;;;9.60;99.90;;;;;;6159615;23;20442;-76
2021/10/28 05:07:07;;;;;;;201.50;59.07;;;9.60;99.90;;;;;;6185847;23;20463;-76
2021/10/28 05:09:40;;;;;;;126.27;42.97;;;9.60;99.90;;;;;;6159478;23;20470;-76
2021/10/28 05:12:10;;;;;;;220.80;58.57;;;9.60;99.90;;;;;;6187285;23;20462;-76
2021/10/28 05:14:38;;;;;;;168.33;59.87;;;9.60;99.90;;;;;;6186181;23;20400;-77
2021/10/28 05:17:07;;;;;;;271.50;59.67;;;9.60;99.90;;;;;;6186253;23;20423;-77
2021/10/28 05:19:38;;;;;;;148.00;49.13;;;9.60;99.90;;;;;;6159417;23;20919;-77
2021/10/28 05:22:07;;;;;;;217.87;54.17;;;9.50;99.90;;;;;;6159555;23;20466;-77
2021/10/28 05:24:36;;;;;;;244.00;49.90;;;9.50;99.90;;;;;;6159469;23;20415;-77
2021/10/28 05:27:07;;;;;;;186.30;49.70;;;9.50;99.90;;;;;;6159334;23;20446;-77
2021/10/28 05:29:57;;;;;;;154.17;39.23;;;9.50;99.90;;;;;;6159491;23;20427;-76
2021/10/28 05:32:25;;;;;;;147.33;41.80;;;9.50;99.90;;;;;;6186102;23;20474;-76
2021/10/28 05:34:58;;;;;;;153.20;54.00;;;9.50;99.90;;;;;;6195786;23;20403;-77
2021/10/28 05:37:26;;;;;;;134.53;36.90;;;9.40;99.90;;;;;;6159531;23;20791;-77
2021/10/28 05:39:59;;;;;;;133.20;45.07;;;9.50;99.90;;;;;;6159503;23;20451;-76
2021/10/28 05:42:28;;;;;;;192.40;50.83;;;9.40;99.90;;;;;;6159487;23;20431;-77
2021/10/28 05:44:58;;;;;;;86.97;34.27;;;9.40;99.90;;;;;;6195717;23;20446;-77
2021/10/28 05:47:26;;;;;;;166.10;42.17;;;9.40;99.90;;;;;;6159284;23;20439;-77
2021/10/28 05:50:15;;;;;;;111.80;35.33;;;9.40;99.90;;;;;;6159282;23;20459;-77
2021/10/28 05:52:45;;;;;;;185.47;51.70;;;9.40;99.90;;;;;;6159633;23;20894;-77
2021/10/28 05:55:14;;;;;;;232.67;47.87;;;9.40;99.90;;;;;;6159455;23;20407;-77
2021/10/28 05:57:43;;;;;;;184.03;43.63;;;9.30;99.90;;;;;;6159219;23;20474;-76
2021/10/28 06:00:13;;;;;;;138.03;46.10;;;9.30;99.90;;;;;;6159218;23;20439;-76
2021/10/28 06:02:42;;;;;;;193.83;44.37;;;9.30;99.90;;;;;;6160200;23;20447;-76
2021/10/28 06:05:11;;;;;;;208.83;49.70;;;9.30;99.90;;;;;;6161336;23;20750;-76
2021/10/28 06:07:40;;;;;;;170.83;39.60;;;9.30;99.90;;;;;;6161225;23;21021;-76
2021/10/28 06:10:11;;;;;;;144.77;38.83;;;9.30;99.90;;;;;;6161250;23;20469;-77
2021/10/28 06:12:43;;;;;;;134.70;46.73;;;9.30;99.90;;;;;;6161189;23;20958;-76
2021/10/28 06:15:13;;;;;;;180.80;52.37;;;9.30;99.90;;;;;;6161287;23;20435;-76
2021/10/28 06:17:49;;;;;;;99.20;35.57;;;9.30;99.90;;;;;;6162534;23;20476;-76
2021/10/28 06:20:17;;;;;;;176.40;41.07;;;9.30;99.90;;;;;;6161175;23;20922;-76
2021/10/28 06:22:46;;;;;;;126.57;35.67;;;9.20;99.90;;;;;;6161470;23;20470;-76
2021/10/28 06:25:14;;;;;;;164.23;40.20;;;9.20;99.90;;;;;;6187818;23;20422;-76
2021/10/28 06:27:42;;;;;;;177.73;39.23;;;9.20;99.90;;;;;;6161070;23;20522;-77
2021/10/28 06:30:13;;;;;;;168.83;43.27;;;9.20;99.90;;;;;;6161028;23;20438;-76
2021/10/28 06:32:47;;;;;;;231.13;42.57;;;9.20;99.90;;;;;;6161042;23;20450;-76
2021/10/28 06:35:15;;;;;;;140.40;35.77;;;9.20;99.90;;;;;;6161490;23;20431;-76
2021/10/28 06:37:46;;;;;;;269.93;53.17;;;9.20;99.90;;;;;;6160962;23;20502;-76
2021/10/28 06:40:17;;;;;;;150.00;45.00;;;9.20;99.90;;;;;;6160715;23;20435;-76
2021/10/28 06:42:45;;;;;;;189.13;45.10;;;9.20;99.90;;;;;;6160829;23;20786;-76
2021/10/28 06:45:15;;;;;;;191.13;43.83;;;9.20;99.90;;;;;;6160744;23;20415;-76
2021/10/28 06:47:43;;;;;;;193.07;40.90;;;9.20;99.90;;;;;;6161536;23;20432;-76
2021/10/28 06:50:13;;;;;;;160.20;42.30;;;9.20;99.90;;;;;;6187206;23;20510;-76
2021/10/28 06:52:51;;;;;;;157.50;45.67;;;9.20;99.90;;;;;;6161253;23;20519;-76
2021/10/28 06:55:29;;;;;;;172.67;47.43;;;9.20;99.90;;;;;;6187570;23;20426;-76
2021/10/28 07:03:28;;;;;;;127.00;39.63;;;9.20;99.90;;;;;;6161057;23;20429;-76
2021/10/28 07:06:01;;;;;;;198.87;45.83;;;9.30;99.90;;;;;;6187545;23;20430;-76
2021/10/28 07:08:29;;;;;;;216.33;50.00;;;9.30;99.90;;;;;;6160635;23;20462;-76
2021/10/28 07:10:59;;;;;;;143.97;43.97;;;9.40;99.90;;;;;;6160692;23;20433;-76
2021/10/28 07:13:28;;;;;;;140.57;40.83;;;9.40;99.90;;;;;;6160547;23;20419;-76
2021/10/28 07:16:00;;;;;;;163.40;42.67;;;9.40;99.90;;;;;;6187281;23;20407;-76
2021/10/28 07:18:40;;;;;;;117.57;42.83;;;9.50;99.90;;;;;;6160736;23;20416;-76
2021/10/28 07:21:29;;;;;;;81.57;31.37;;;9.50;99.90;;;;;;6197145;23;20451;-76
2021/10/28 07:24:21;;;;;;;170.33;49.97;;;9.50;99.90;;;;;;6160678;23;20747;-76
2021/10/28 07:27:04;;;;;;;140.80;43.07;;;9.60;99.90;;;;;;6196888;23;20395;-76
2021/10/28 07:32:39;;;;;;;168.80;45.20;;;9.60;99.90;;;;;;6160554;23;20407;-76
2021/10/28 07:35:28;;;;;;;187.23;47.93;;;9.60;99.90;;;;;;6197148;23;20372;-76
2021/10/28 07:58:04;;;;;;;168.07;53.30;;;9.90;99.90;;;;;;6160201;23;20482;-77
2021/10/28 08:17:35;;;;;;;204.23;45.73;;;10.30;99.90;;;;;;6123521;23;20502;-76
2021/10/28 08:20:06;;;;;;;249.10;45.80;;;10.30;99.90;;;;;;6197160;23;20419;-76
2021/10/28 08:22:39;;;;;;;204.53;43.73;;;10.40;99.90;;;;;;6159953;23;20950;-76
2021/10/28 08:30:40;;;;;;;268.87;52.97;;;10.50;99.90;;;;;;6159891;23;20509;-76
2021/10/28 08:33:08;;;;;;;195.07;45.17;;;10.60;99.90;;;;;;6159894;23;20423;-77
2021/10/28 08:35:52;;;;;;;223.40;53.13;;;10.60;99.90;;;;;;6159918;23;20411;-77
2021/10/28 08:38:22;;;;;;;209.43;47.77;;;10.70;99.90;;;;;;6159837;23;20411;-76
2021/10/28 08:40:54;;;;;;;190.03;45.33;;;10.70;99.90;;;;;;6159601;23;20447;-77
2021/10/28 08:43:24;;;;;;;250.13;54.67;;;10.80;99.90;;;;;;6186088;23;20423;-77
2021/10/28 08:45:53;;;;;;;199.83;42.20;;;10.80;99.90;;;;;;6159894;23;20415;-77
2021/10/28 08:48:23;;;;;;;257.37;53.97;;;10.90;99.90;;;;;;6159718;23;20993;-77
2021/10/28 08:51:03;;;;;;;255.80;55.67;;;11.00;99.90;;;;;;6196449;23;20447;-77
2021/10/28 08:53:49;;;;;;;240.10;48.43;;;11.00;99.90;;;;;;6159644;23;20439;-77
2021/10/28 08:56:26;;;;;;;258.73;51.60;;;11.10;99.90;;;;;;6159809;23;20494;-77
2021/10/28 08:59:24;;;;;;;203.67;47.70;;;11.20;99.90;;;;;;6159563;23;20414;-75
2021/10/28 09:24:37;;;;;;;279.17;52.27;;;11.80;99.90;;;;;;6159282;23;20438;-77
2021/10/28 09:27:13;;;;;;;210.40;44.70;;;11.80;99.90;;;;;;6159347;23;20415;-76
2021/10/28 09:29:48;;;;;;;193.03;38.00;;;11.90;99.90;;;;;;6195903;23;20923;-76
2021/10/28 09:32:25;;;;;;;290.60;51.90;;;12.00;99.90;;;;;;6159418;23;20494;-77
2021/10/28 09:43:56;;;;;;;233.47;45.50;;;12.30;99.90;;;;;;6159396;23;20498;-77
2021/10/28 09:46:47;;;;;;;248.57;50.73;;;12.30;99.90;;;;;;6159434;23;20897;-76
2021/10/28 09:52:04;;;;;;;241.53;54.27;;;12.40;99.90;;;;;;6159205;23;20934;-76
2021/10/28 09:54:43;;;;;;;252.33;47.93;;;12.50;99.90;;;;;;6159221;23;20446;-77
2021/10/28 10:00:21;;;;;;;337.20;61.10;;;12.60;99.90;;;;;;6070545;23;20469;-76
2021/10/28 10:02:54;;;;;;;273.67;59.57;;;12.70;99.90;;;;;;6139492;23;20443;-76
2021/10/28 10:05:24;;;;;;;387.07;52.93;;;12.70;99.90;;;;;;6196414;23;20423;-76
2021/10/28 10:07:54;;;;;;;278.43;59.20;;;12.80;99.90;;;;;;6195593;23;20387;-76
2021/10/28 10:10:23;;;;;;;426.60;66.10;;;12.80;99.90;;;;;;6158997;23;20451;-76
2021/10/28 10:12:53;;;;;;;243.37;56.03;;;12.90;99.90;;;;;;6159088;23;20420;-76
2021/10/28 10:15:22;;;;;;;319.50;62.67;;;12.90;99.90;;;;;;6159343;23;20418;-76
2021/10/28 10:17:52;;;;;;;345.87;87.13;;;12.90;99.90;;;;;;6195584;23;20430;-77
2021/10/28 10:20:29;;;;;;;348.47;78.47;;;13.00;99.90;;;;;;6159124;23;20530;-76
2021/10/28 10:23:20;;;;;;;341.93;74.80;;;13.00;99.90;;;;;;6185953;23;20395;-76
2021/10/28 10:26:00;;;;;;;324.73;83.77;;;13.10;99.90;;;;;;6159892;23;20412;-76
2021/10/28 11:23:22;;;;;;;647.73;251.17;;;14.30;99.90;;;;;;6160503;23;20461;-76
2021/10/28 12:25:17;;;;;;;1999.90;681.77;;;15.40;99.90;;;;;;6094104;23;20425;-76
2021/10/28 12:27:58;;;;;;;1999.90;800.67;;;15.40;99.90;;;;;;6157095;23;20793;-76
2021/10/28 13:02:04;;;;;;;1999.90;686.70;;;16.10;99.90;;;;;;6026482;23;20207;-77
2021/10/28 13:53:19;;;;;;;1999.90;873.83;;;16.40;99.90;;;;;;6309279;22;20385;-77
2021/10/28 13:58:57;;;;;;;1999.90;751.93;;;16.40;99.90;;;;;;6312690;22;20411;-77
2021/10/28 15:28:06;;;;;;;1999.90;947.10;;;15.70;99.90;;;;;;5048546;28;20470;-76
2021/10/28 15:31:11;;;;;;;1999.90;861.77;;;15.70;99.90;;;;;;5049629;28;20537;-76
2021/10/28 15:36:29;;;;;;;1999.90;890.67;;;15.60;99.90;;;;;;5049496;28;20568;-76
2021/10/28 15:39:06;;;;;;;42.25;28.50;;;15.60;99.90;;;;;;5049163;28;20491;-76
2021/10/28 16:23:43;;;;;;;1999.90;870.17;;;14.60;99.90;;;;;;5035613;28;20473;-76
2021/10/28 16:26:11;;;;;;;1999.90;866.93;;;14.50;99.90;;;;;;5034072;28;20447;-76
2021/10/28 16:28:39;;;;;;;1999.90;833.20;;;14.50;99.90;;;;;;5034056;28;20485;-76
2021/10/28 16:31:08;;;;;;;1999.90;700.90;;;14.40;99.90;;;;;;5033901;28;20467;-76
2021/10/28 16:33:36;;;;;;;1999.90;849.30;;;14.40;99.90;;;;;;5033927;28;20442;-76
2021/10/28 16:36:05;;;;;;;1999.90;896.77;;;14.40;99.90;;;;;;5035134;28;20559;-76
2021/10/28 16:38:34;;;;;;;1999.90;944.23;;;14.30;99.90;;;;;;5033888;28;20458;-76
2021/10/28 16:41:02;;;;;;;1999.90;830.67;;;14.30;99.90;;;;;;5033822;28;20545;-76
2021/10/28 16:43:30;;;;;;;1999.90;794.87;;;14.20;99.90;;;;;;5034987;28;20443;-76
2021/10/28 16:45:58;;;;;;;1999.90;758.77;;;14.20;99.90;;;;;;5033794;28;20439;-76
2021/10/28 16:48:27;;;;;;;1999.90;812.07;;;14.10;99.90;;;;;;5033698;28;20490;-76
2021/10/28 16:50:55;;;;;;;1999.90;818.57;;;14.10;99.90;;;;;;5034893;28;20866;-76
2021/10/28 16:53:25;;;;;;;1999.90;796.93;;;14.00;99.90;;;;;;5034865;28;20519;-76
2021/10/28 16:56:00;;;;;;;1999.90;773.07;;;14.00;99.90;;;;;;5033490;28;20537;-76
2021/10/28 16:58:29;;;;;;;1999.90;795.47;;;13.90;99.90;;;;;;5033790;28;20451;-76
2021/10/28 17:00:57;;;;;;;1999.90;768.30;;;13.90;99.90;;;;;;5033367;28;20605;-76
2021/10/28 17:03:26;;;;;;;1999.90;783.63;;;13.80;99.90;;;;;;5033380;28;20451;-76
2021/10/28 17:05:54;;;;;;;1999.90;756.53;;;13.70;99.90;;;;;;5034857;28;20424;-76
2021/10/28 17:08:23;;;;;;;1999.90;761.00;;;13.70;99.90;;;;;;5033326;28;20490;-76
2021/10/28 17:10:52;;;;;;;1999.90;738.53;;;13.60;99.90;;;;;;5035350;28;20963;-76
2021/10/28 17:13:20;;;;;;;1999.90;712.43;;;13.60;99.90;;;;;;5034761;28;20861;-76
2021/10/28 17:15:49;;;;;;;1999.90;768.03;;;13.50;99.90;;;;;;5034599;28;20447;-76
2021/10/28 17:18:17;;;;;;;1999.90;821.73;;;13.50;99.90;;;;;;5033160;28;20518;-76
2021/10/28 17:20:46;;;;;;;1999.90;820.83;;;13.40;99.90;;;;;;5033042;28;20466;-76
2021/10/28 17:23:16;;;;;;;1999.90;674.00;;;13.40;99.90;;;;;;5033050;28;21031;-76
2021/10/28 17:25:54;;;;;;;1999.90;659.60;;;13.40;99.90;;;;;;5033318;28;20461;-75
2021/10/28 17:28:23;;;;;;;1999.90;747.30;;;13.30;99.90;;;;;;5033048;28;20439;-76
2021/10/28 17:30:52;;;;;;;1999.90;643.77;;;13.30;99.90;;;;;;5032811;28;20521;-76
2021/10/28 17:33:20;;;;;;;790.23;184.40;;;13.20;99.90;;;;;;5032838;28;20447;-76
2021/10/28 17:35:48;;;;;;;816.17;190.20;;;13.20;99.90;;;;;;5032562;28;20558;-76
2021/10/28 17:38:17;;;;;;;457.93;119.50;;;13.10;99.90;;;;;;5033105;28;20413;-76
2021/10/28 17:40:47;;;;;;;568.63;151.00;;;13.10;99.90;;;;;;5033850;28;20477;-76
2021/10/28 17:43:30;;;;;;;586.63;121.67;;;13.00;99.90;;;;;;5032770;28;20442;-76
2021/10/28 17:45:58;;;;;;;378.33;72.13;;;13.00;99.90;;;;;;5034159;28;20431;-76
2021/10/28 17:48:27;;;;;;;454.83;104.93;;;13.00;99.90;;;;;;5032560;28;20793;-76
2021/10/28 17:50:55;;;;;;;205.97;53.17;;;12.90;99.90;;;;;;5032295;28;20548;-76
2021/10/28 17:53:23;;;;;;;327.77;144.57;;;12.90;99.90;;;;;;5033817;28;20438;-76
2021/10/28 17:55:53;;;;;;;356.37;85.67;;;12.90;99.90;;;;;;5032372;28;20557;-76
2021/10/28 17:58:21;;;;;;;423.53;77.33;;;12.80;99.90;;;;;;5033017;28;20549;-76
2021/10/28 18:00:51;;;;;;;464.33;78.03;;;12.80;99.90;;;;;;5033603;28;20537;-76
2021/10/28 18:03:21;;;;;;;539.77;120.57;;;12.80;99.90;;;;;;5032446;28;20454;-76
2021/10/28 18:05:50;;;;;;;415.83;79.53;;;12.70;99.90;;;;;;5032330;28;20450;-76
2021/10/28 18:08:18;;;;;;;351.93;38.57;;;12.60;99.90;;;;;;5032319;28;20447;-76
2021/10/28 18:10:47;;;;;;;322.30;81.50;;;12.60;99.90;;;;;;5031990;28;21000;-76
2021/10/28 18:13:18;;;;;;;496.33;68.50;;;12.60;99.90;;;;;;5065555;28;20510;-76
2021/10/28 18:15:47;;;;;;;265.57;45.87;;;12.60;99.90;;;;;;5034163;28;20940;-77
2021/10/28 18:18:15;;;;;;;337.90;68.20;;;12.50;99.90;;;;;;5032171;28;20497;-75
2021/10/28 18:20:58;;;;;;;464.80;61.27;;;12.50;99.90;;;;;;5033367;28;20987;-76
2021/10/28 18:23:30;;;;;;;306.33;51.30;;;12.40;99.90;;;;;;5032209;28;20447;-76
2021/10/28 18:25:59;;;;;;;305.80;50.23;;;12.40;99.90;;;;;;5033321;28;20439;-75
2021/10/28 18:28:29;;;;;;;250.93;40.67;;;12.30;99.90;;;;;;5033297;28;20435;-75
2021/10/28 18:30:57;;;;;;;247.63;43.67;;;12.30;99.90;;;;;;5033527;28;20450;-76
2021/10/28 18:33:26;;;;;;;322.93;54.07;;;12.30;99.90;;;;;;5033544;28;20439;-76
2021/10/28 18:35:54;;;;;;;237.70;50.23;;;12.20;99.90;;;;;;5033114;28;20545;-76
2021/10/28 18:38:22;;;;;;;372.07;67.27;;;12.20;99.90;;;;;;5031849;28;20493;-75
2021/10/28 18:40:57;;;;;;;212.27;33.83;;;12.20;99.90;;;;;;5031893;28;20520;-76
2021/10/28 18:43:25;;;;;;;322.07;49.47;;;12.10;99.90;;;;;;5033330;28;20483;-76
2021/10/28 18:45:56;;;;;;;262.00;43.63;;;12.10;99.90;;;;;;5033219;28;20430;-76
2021/10/28 18:48:25;;;;;;;305.27;39.40;;;12.10;99.90;;;;;;5031891;28;20449;-75
2021/10/28 18:50:55;;;;;;;234.80;45.23;;;12.00;99.90;;;;;;5031797;28;20469;-76
2021/10/28 18:53:23;;;;;;;342.07;45.40;;;12.00;99.90;;;;;;5031802;28;20451;-76
2021/10/28 18:55:51;;;;;;;328.47;40.43;;;12.00;99.90;;;;;;5031876;28;20450;-75
2021/10/28 18:58:20;;;;;;;337.00;53.77;;;11.90;99.90;;;;;;5031736;28;20470;-75
2021/10/28 19:00:49;;;;;;;316.93;65.10;;;11.90;99.90;;;;;;5032879;28;20508;-76
2021/10/28 19:03:20;;;;;;;336.57;48.37;;;11.90;99.90;;;;;;5065015;28;20451;-76
2021/10/28 19:05:52;;;;;;;363.63;61.73;;;11.90;99.90;;;;;;5032911;28;20865;-76
2021/10/28 19:08:20;;;;;;;309.90;46.27;;;11.90;99.90;;;;;;5032566;28;20447;-75
2021/10/28 19:10:49;;;;;;;408.83;57.73;;;11.80;99.90;;;;;;5031570;28;20463;-76
2021/10/28 19:13:17;;;;;;;342.30;66.93;;;11.80;99.90;;;;;;5033151;28;20542;-75
2021/10/28 19:15:45;;;;;;;341.90;60.90;;;11.80;99.90;;;;;;5031587;28;20443;-76
2021/10/28 19:18:14;;;;;;;312.37;64.47;;;11.70;99.90;;;;;;5031461;28;20549;-75
2021/10/28 19:20:44;;;;;;;406.73;74.57;;;11.70;99.90;;;;;;5031439;28;20553;-76
2021/10/28 19:23:12;;;;;;;270.43;39.00;;;11.70;99.90;;;;;;5035453;28;20443;-76
2021/10/28 19:25:41;;;;;;;270.43;44.70;;;11.60;99.90;;;;;;5036761;28;20438;-76
2021/10/28 19:28:10;;;;;;;284.37;38.00;;;11.60;99.90;;;;;;5068832;28;20880;-76
2021/10/28 19:30:44;;;;;;;149.27;30.60;;;11.60;99.90;;;;;;5036325;28;20803;-76
2021/10/28 19:33:16;;;;;;;403.47;70.20;;;11.60;99.90;;;;;;5035240;28;20443;-75
2021/10/28 19:35:49;;;;;;;153.47;33.13;;;11.50;99.90;;;;;;5035000;28;20902;-76
2021/10/28 19:38:29;;;;;;;241.90;41.90;;;11.50;99.90;;;;;;5036292;28;20585;-76
2021/10/28 19:41:11;;;;;;;242.90;34.83;;;11.50;99.90;;;;;;5034996;28;20995;-75
2021/10/28 19:46:26;;;;;;;272.60;42.20;;;11.40;99.90;;;;;;5034991;28;20878;-76
2021/10/28 19:48:56;;;;;;;234.07;37.93;;;11.40;99.90;;;;;;5034838;28;20442;-76
2021/10/28 19:51:26;;;;;;;198.07;42.20;;;11.30;99.90;;;;;;5034798;28;20446;-76
2021/10/28 19:53:56;;;;;;;327.93;46.87;;;11.40;99.90;;;;;;5034787;28;20822;-75
2021/10/28 19:56:24;;;;;;;237.13;32.97;;;11.30;99.90;;;;;;5035933;28;20884;-76
2021/10/28 19:58:55;;;;;;;272.10;40.63;;;11.30;99.90;;;;;;5034552;28;20481;-75
2021/10/28 20:01:31;;;;;;;303.73;47.23;;;11.30;99.90;;;;;;5036230;28;20484;-76
2021/10/28 20:07:10;;;;;;;211.97;37.87;;;11.20;99.90;;;;;;5011747;28;20462;-76
2021/10/28 20:15:26;;;;;;;200.63;28.53;;;11.10;99.90;;;;;;5067780;28;20494;-75
2021/10/28 20:20:40;;;;;;;164.50;22.73;;;11.10;99.90;;;;;;5067598;28;20467;-76
2021/10/28 20:23:10;;;;;;;228.93;31.23;;;11.00;99.90;;;;;;5035488;28;20449;-76
2021/10/28 20:25:38;;;;;;;212.40;39.10;;;11.00;99.90;;;;;;5035473;28;20533;-76
2021/10/28 20:28:08;;;;;;;191.10;24.03;;;11.00;99.90;;;;;;5035400;28;20443;-76
2021/10/28 20:33:32;;;;;;;126.90;28.03;;;10.90;99.90;;;;;;5033557;28;20506;-76
2021/10/28 20:37:04;;;;;;;127.63;24.63;;;10.90;99.90;;;;;;5035260;28;21034;-75
2021/10/28 20:38:59;;;;;;;204.20;36.37;;;10.90;99.90;;;;;;5033727;28;20493;-75
2021/10/28 20:41:28;;;;;;;131.63;27.43;;;10.90;99.90;;;;;;5033916;28;20535;-75
2021/10/28 20:43:57;;;;;;;311.27;36.20;;;10.90;99.90;;;;;;5033831;28;20801;-75
2021/10/28 20:46:26;;;;;;;121.03;26.33;;;10.80;99.90;;;;;;5034398;28;20522;-76
2021/10/28 20:48:55;;;;;;;215.03;23.43;;;10.80;99.90;;;;;;5033827;28;20810;-75
2021/10/28 20:51:24;;;;;;;132.60;27.93;;;10.80;99.90;;;;;;5035047;28;20874;-75
2021/10/28 20:53:52;;;;;;;203.73;27.93;;;10.80;99.90;;;;;;5034910;28;20940;-75
2021/10/28 20:56:25;;;;;;;173.47;29.20;;;10.80;99.90;;;;;;5034854;28;20474;-75
2021/10/28 20:58:54;;;;;;;165.83;29.40;;;10.80;99.90;;;;;;5066787;28;20954;-75